Terminal Aerodrome Forecast
Issued by NWS Cleveland, OH

Home | Current Version | Previous Version | Graphics & Text | Print | Product List | Glossary On
Versions: 1 2 3 4 5 6 7 8 9 10 11 12 13 14 15 16 17 18 19 20 21 22 23
867
FTUS41 KCLE 211126
TAFCLE
TAF
KCLE 211126Z 2112/2218 VRB03KT P6SM BKN200
     FM211600 35008KT P6SM SCT050 BKN200
     FM212300 36005KT P6SM FEW250
     FM220500 14004KT P6SM FEW250
     FM221100 17007KT P6SM BKN090
     FM221300 18008KT 5SM -SHRA VCTS OVC035CB=

USA.gov is the U.S. government's official web portal to all federal, state and local government web resources and services.